createdAt,value
2018-07-30T00:00:08.277Z,12.50
2018-07-30T00:02:41.443Z,12.50
2018-07-30T00:05:09.976Z,12.40
2018-07-30T00:07:38.196Z,12.30
2018-07-30T00:10:06.678Z,12.20
2018-07-30T00:12:34.715Z,12.20
2018-07-30T00:15:02.515Z,12.10
2018-07-30T00:17:30.226Z,12.00
2018-07-30T00:19:57.846Z,11.90
2018-07-30T00:22:25.529Z,11.90
2018-07-30T00:24:53.412Z,12.00
2018-07-30T00:27:21.319Z,12.00
2018-07-30T00:29:48.862Z,12.10
2018-07-30T00:32:16.513Z,12.00
2018-07-30T00:34:44.156Z,12.00
2018-07-30T00:37:11.766Z,11.90
2018-07-30T00:42:07.327Z,11.80
2018-07-30T00:44:34.983Z,11.70
2018-07-30T00:47:02.623Z,11.70
2018-07-30T00:49:30.403Z,11.60
2018-07-30T00:51:58.678Z,11.60
2018-07-30T00:54:26.472Z,11.50
2018-07-30T00:56:54.097Z,11.40
2018-07-30T00:59:22.646Z,11.30
2018-07-30T01:01:50.469Z,11.30
2018-07-30T01:04:18.149Z,11.30
2018-07-30T01:06:45.941Z,11.30
2018-07-30T01:09:13.654Z,11.30
2018-07-30T01:11:41.279Z,11.40
2018-07-30T01:14:12.022Z,11.40
2018-07-30T01:16:39.651Z,11.40
2018-07-30T01:19:07.287Z,11.40
2018-07-30T01:21:34.898Z,11.40
2018-07-30T01:24:02.475Z,11.20
2018-07-30T01:26:30.090Z,11.00
2018-07-30T01:28:59.061Z,10.90
2018-07-30T01:31:26.606Z,10.80
2018-07-30T01:33:54.117Z,10.70
2018-07-30T01:36:21.676Z,10.70
2018-07-30T01:38:49.831Z,10.60
2018-07-30T01:41:17.731Z,10.60
2018-07-30T01:43:45.262Z,10.60
2018-07-30T01:46:12.833Z,10.50
2018-07-30T01:48:40.392Z,10.50
2018-07-30T01:51:07.973Z,10.50
2018-07-30T01:53:35.805Z,10.40
2018-07-30T01:56:03.332Z,10.40
2018-07-30T01:58:30.904Z,10.30
2018-07-30T02:00:58.930Z,10.10
2018-07-30T02:03:26.617Z,10.00
2018-07-30T02:05:54.818Z,9.80
2018-07-30T02:08:22.385Z,9.80
2018-07-30T02:10:49.918Z,9.70
2018-07-30T02:13:17.444Z,9.80
2018-07-30T02:15:44.870Z,9.80
2018-07-30T02:18:12.622Z,9.70
2018-07-30T02:20:40.145Z,9.60
2018-07-30T02:23:07.626Z,9.50
2018-07-30T02:25:35.269Z,9.50
2018-07-30T02:28:02.868Z,9.60
2018-07-30T02:30:30.345Z,9.70
2018-07-30T02:32:57.795Z,9.80
2018-07-30T02:35:25.411Z,9.70
2018-07-30T02:37:52.941Z,9.60
2018-07-30T02:40:20.479Z,9.50
2018-07-30T02:42:48.353Z,9.40
2018-07-30T02:45:15.849Z,9.40
2018-07-30T02:50:10.762Z,9.40
2018-07-30T02:52:38.295Z,9.30
2018-07-30T02:55:06.043Z,9.10
2018-07-30T02:57:33.555Z,9.10
2018-07-30T03:00:01.204Z,9.00
2018-07-30T03:02:28.689Z,9.00
2018-07-30T03:04:56.203Z,9.00
2018-07-30T03:07:23.650Z,9.10
2018-07-30T03:09:51.418Z,9.10
2018-07-30T03:12:19.035Z,9.00
2018-07-30T03:17:14.201Z,8.80
2018-07-30T03:19:41.696Z,8.80
2018-07-30T03:22:09.177Z,8.60
2018-07-30T03:24:36.731Z,8.50
2018-07-30T03:27:04.381Z,8.40
2018-07-30T03:29:31.893Z,8.30
2018-07-30T03:31:59.522Z,8.40
2018-07-30T03:34:26.988Z,8.50
2018-07-30T03:36:54.497Z,8.60
2018-07-30T03:39:23.138Z,8.70
2018-07-30T03:41:50.728Z,8.80
2018-07-30T03:44:18.281Z,8.80
2018-07-30T03:46:45.737Z,9.00
2018-07-30T03:49:13.273Z,9.30
2018-07-30T03:51:40.909Z,9.80
2018-07-30T03:54:08.531Z,10.60
2018-07-30T03:56:36.222Z,11.00
2018-07-30T03:59:04.573Z,11.80
2018-07-30T04:01:39.463Z,12.80
2018-07-30T04:09:14.189Z,13.60
2018-07-30T04:50:42.954Z,20.10
2018-07-30T05:05:42.738Z,25.10
2018-07-30T05:08:10.294Z,27.50
2018-07-30T05:10:38.084Z,26.50
2018-07-30T05:13:05.939Z,26.10
2018-07-30T05:15:33.425Z,27.40
2018-07-30T05:18:01.051Z,28.40
2018-07-30T05:20:28.532Z,29.10
2018-07-30T05:22:56.000Z,29.10
2018-07-30T05:25:23.506Z,28.60
2018-07-30T05:27:51.014Z,26.80
2018-07-30T05:30:18.433Z,25.70
2018-07-30T05:32:45.849Z,26.90
2018-07-30T05:35:13.282Z,28.50
2018-07-30T05:37:40.716Z,28.40
2018-07-30T05:40:08.104Z,27.30
2018-07-30T05:42:35.572Z,26.70
2018-07-30T05:47:30.437Z,25.60
2018-07-30T05:49:57.969Z,26.10
2018-07-30T05:52:25.340Z,28.20
2018-07-30T05:54:53.090Z,29.90
2018-07-30T05:57:20.672Z,31.40
2018-07-30T05:59:48.163Z,32.20
2018-07-30T06:02:15.545Z,30.50
2018-07-30T06:04:42.939Z,30.00
2018-07-30T06:07:10.372Z,30.00
2018-07-30T06:09:38.013Z,29.90
2018-07-30T06:12:05.408Z,29.60
2018-07-30T06:14:32.813Z,29.50
2018-07-30T06:17:00.249Z,30.20
2018-07-30T06:19:27.664Z,30.40
2018-07-30T06:21:55.102Z,30.90
2018-07-30T06:24:22.499Z,31.80
2018-07-30T06:26:49.952Z,33.50
2018-07-30T06:29:17.564Z,34.50
2018-07-30T06:31:45.023Z,33.80
2018-07-30T06:34:12.437Z,33.30
2018-07-30T06:36:39.848Z,33.50
2018-07-30T06:39:08.562Z,32.70
2018-07-30T06:41:36.026Z,32.80
2018-07-30T06:44:03.889Z,32.20
2018-07-30T06:46:31.308Z,32.40
2018-07-30T06:48:58.738Z,32.80
2018-07-30T06:51:26.150Z,32.90
2018-07-30T06:53:53.577Z,32.70
2018-07-30T06:56:20.992Z,31.70
2018-07-30T06:58:48.416Z,30.50
2018-07-30T07:01:15.838Z,29.10
2018-07-30T07:03:43.297Z,27.90
2018-07-30T07:06:10.728Z,27.40
2018-07-30T07:08:38.140Z,26.90
2018-07-30T07:11:05.617Z,26.30
2018-07-30T07:15:52.975Z,26.10
2018-07-30T07:18:20.370Z,25.50
2018-07-30T07:20:47.808Z,25.40
2018-07-30T07:23:15.234Z,25.50
2018-07-30T07:25:42.685Z,25.70
2018-07-30T07:28:10.093Z,25.60
2018-07-30T07:30:37.496Z,25.30
2018-07-30T07:33:05.209Z,25.40
2018-07-30T07:35:32.631Z,25.40
2018-07-30T07:38:00.033Z,25.60
2018-07-30T07:40:27.685Z,25.60
2018-07-30T07:42:55.165Z,25.60
2018-07-30T07:45:22.592Z,25.40
2018-07-30T07:47:50.064Z,25.40
2018-07-30T07:50:17.571Z,25.40
2018-07-30T07:52:44.956Z,25.30
2018-07-30T07:55:12.481Z,25.40
2018-07-30T07:57:39.892Z,25.50
2018-07-30T08:00:08.748Z,25.40
2018-07-30T08:02:36.174Z,25.40
2018-07-30T08:05:04.818Z,25.60
2018-07-30T08:09:59.661Z,25.70
2018-07-30T08:12:27.078Z,25.80
2018-07-30T08:14:54.535Z,25.90
2018-07-30T08:17:22.006Z,25.90
2018-07-30T08:19:49.413Z,26.00
2018-07-30T08:22:16.877Z,26.20
2018-07-30T08:24:44.277Z,26.10
2018-07-30T08:27:11.694Z,26.10
2018-07-30T08:29:39.200Z,25.90
2018-07-30T08:32:06.662Z,25.90
2018-07-30T08:34:34.089Z,25.90
2018-07-30T08:37:01.543Z,26.00
2018-07-30T08:39:28.946Z,26.00
2018-07-30T08:41:56.387Z,26.00
2018-07-30T08:44:23.838Z,26.30
2018-07-30T08:46:51.274Z,26.20
2018-07-30T08:49:18.662Z,26.30
2018-07-30T08:51:46.077Z,26.50
2018-07-30T08:54:13.493Z,26.60
2018-07-30T08:56:40.954Z,26.50
2018-07-30T08:59:08.368Z,26.50
2018-07-30T09:01:35.790Z,26.70
2018-07-30T09:04:03.257Z,26.80
2018-07-30T09:06:30.692Z,27.00
2018-07-30T09:08:58.119Z,26.90
2018-07-30T09:11:25.546Z,26.40
2018-07-30T09:13:52.942Z,26.40
2018-07-30T09:16:20.350Z,26.40
2018-07-30T09:18:47.789Z,26.50
2018-07-30T09:21:15.265Z,26.40
2018-07-30T09:23:42.673Z,26.60
2018-07-30T09:26:10.086Z,26.70
2018-07-30T09:28:37.653Z,26.70
2018-07-30T09:31:05.048Z,26.90
2018-07-30T09:33:32.460Z,26.80
2018-07-30T09:35:59.896Z,26.90
2018-07-30T09:38:27.305Z,26.80
2018-07-30T09:40:54.777Z,26.70
2018-07-30T09:43:22.168Z,26.70
2018-07-30T09:45:49.594Z,26.80
2018-07-30T09:48:17.025Z,27.00
2018-07-30T09:53:11.867Z,27.70
2018-07-30T09:55:39.434Z,27.80
2018-07-30T09:58:06.868Z,27.70
2018-07-30T10:00:39.880Z,27.70
2018-07-30T10:03:07.321Z,27.70
2018-07-30T10:08:02.113Z,28.00
2018-07-30T10:10:29.535Z,27.90
2018-07-30T10:12:56.944Z,28.10
2018-07-30T10:15:24.377Z,28.00
2018-07-30T10:17:51.803Z,28.00
2018-07-30T10:20:19.212Z,28.10
2018-07-30T10:22:46.637Z,28.10
2018-07-30T10:25:14.041Z,28.20
2018-07-30T10:27:41.489Z,28.20
2018-07-30T10:30:08.911Z,28.20
2018-07-30T10:32:36.604Z,28.30
2018-07-30T10:35:04.413Z,28.40
2018-07-30T10:37:31.868Z,28.30
2018-07-30T10:39:59.335Z,28.30
2018-07-30T10:42:26.759Z,28.40
2018-07-30T10:44:54.173Z,28.50
2018-07-30T10:47:21.552Z,28.50
2018-07-30T10:49:48.990Z,28.50
2018-07-30T10:52:16.405Z,28.60
2018-07-30T10:54:43.815Z,28.60
2018-07-30T10:57:11.234Z,28.80
2018-07-30T10:59:38.665Z,28.60
2018-07-30T11:02:06.120Z,28.70
2018-07-30T11:04:36.836Z,28.70
2018-07-30T11:07:04.414Z,28.60
2018-07-30T11:09:31.849Z,28.60
2018-07-30T11:11:59.919Z,28.70
2018-07-30T11:14:27.302Z,28.80
2018-07-30T11:16:54.712Z,28.70
2018-07-30T11:19:22.187Z,28.70
2018-07-30T11:21:49.622Z,28.60
2018-07-30T11:24:17.050Z,28.70
2018-07-30T11:26:44.517Z,28.70
2018-07-30T11:29:11.916Z,28.90
2018-07-30T11:31:39.362Z,29.20
2018-07-30T11:34:06.937Z,29.40
2018-07-30T11:36:34.382Z,29.50
2018-07-30T11:39:01.805Z,29.50
2018-07-30T11:41:29.281Z,29.80
2018-07-30T11:43:56.717Z,29.70
2018-07-30T11:46:24.109Z,29.70
2018-07-30T11:48:51.585Z,29.60
2018-07-30T11:51:18.997Z,29.60
2018-07-30T11:53:46.472Z,29.60
2018-07-30T11:56:13.901Z,29.50
2018-07-30T11:58:41.305Z,29.50
2018-07-30T12:01:08.798Z,29.70
2018-07-30T12:03:36.162Z,29.70
2018-07-30T12:06:03.733Z,29.60
2018-07-30T12:08:31.122Z,29.80
2018-07-30T12:10:58.544Z,30.10
2018-07-30T12:13:25.989Z,30.20
2018-07-30T12:15:53.392Z,30.00
2018-07-30T12:18:20.834Z,30.10
2018-07-30T12:20:48.272Z,30.20
2018-07-30T12:23:15.699Z,30.10
2018-07-30T12:28:10.528Z,30.50
2018-07-30T12:30:37.999Z,30.60
2018-07-30T12:33:05.598Z,30.70
2018-07-30T12:35:32.992Z,30.80
2018-07-30T12:38:00.416Z,30.80
2018-07-30T12:40:32.409Z,30.70
2018-07-30T12:43:00.106Z,30.80
2018-07-30T12:45:33.102Z,30.60
2018-07-30T12:48:00.500Z,30.50
2018-07-30T12:50:27.966Z,30.50
2018-07-30T12:52:55.489Z,30.20
2018-07-30T12:55:22.896Z,30.00
2018-07-30T12:57:50.317Z,30.00
2018-07-30T13:00:17.743Z,30.40
2018-07-30T13:05:12.641Z,30.80
2018-07-30T13:07:40.069Z,30.70
2018-07-30T13:10:07.738Z,30.50
2018-07-30T13:12:35.200Z,30.10
2018-07-30T13:15:03.090Z,29.90
2018-07-30T13:17:30.515Z,29.80
2018-07-30T13:19:57.920Z,29.80
2018-07-30T13:22:25.368Z,29.80
2018-07-30T13:24:52.842Z,29.60
2018-07-30T13:27:20.266Z,29.50
2018-07-30T13:29:47.720Z,29.40
2018-07-30T13:32:15.154Z,29.50
2018-07-30T13:34:42.600Z,29.50
2018-07-30T13:39:37.473Z,29.20
2018-07-30T13:42:04.942Z,29.20
2018-07-30T13:44:32.392Z,29.20
2018-07-30T13:46:59.797Z,29.10
2018-07-30T13:49:27.229Z,29.30
2018-07-30T13:51:54.684Z,29.40
2018-07-30T13:54:22.102Z,29.50
2018-07-30T13:56:49.536Z,29.40
2018-07-30T13:59:16.950Z,29.40
2018-07-30T14:01:44.386Z,29.40
2018-07-30T14:04:11.791Z,29.60
2018-07-30T14:06:39.192Z,29.70
2018-07-30T14:09:08.421Z,29.50
2018-07-30T14:11:35.838Z,29.30
2018-07-30T14:14:03.390Z,29.50
2018-07-30T14:16:30.817Z,29.70
2018-07-30T14:18:58.269Z,29.50
2018-07-30T14:21:25.720Z,29.70
2018-07-30T14:23:53.137Z,30.10
2018-07-30T14:26:20.582Z,30.20
2018-07-30T14:28:47.993Z,30.30
2018-07-30T14:31:15.404Z,30.60
2018-07-30T14:33:42.880Z,30.90
2018-07-30T14:36:10.312Z,31.10
2018-07-30T14:38:37.716Z,31.10
2018-07-30T14:41:05.173Z,30.80
2018-07-30T14:43:32.638Z,30.90
2018-07-30T14:46:00.069Z,30.80
2018-07-30T14:48:27.506Z,30.90
2018-07-30T14:50:54.961Z,30.90
2018-07-30T14:53:22.382Z,30.60
2018-07-30T14:55:49.797Z,30.70
2018-07-30T14:58:17.229Z,30.60
2018-07-30T15:00:44.744Z,30.40
2018-07-30T15:03:12.171Z,30.00
2018-07-30T15:05:39.597Z,30.10
2018-07-30T15:10:34.409Z,30.10
2018-07-30T15:13:01.849Z,29.90
2018-07-30T15:15:29.280Z,30.10
2018-07-30T15:17:56.679Z,30.20
2018-07-30T15:20:24.121Z,30.20
2018-07-30T15:22:51.561Z,29.90
2018-07-30T15:25:18.991Z,29.70
2018-07-30T15:27:46.474Z,29.50
2018-07-30T15:30:13.889Z,29.50
2018-07-30T15:32:41.265Z,29.60
2018-07-30T15:37:36.103Z,29.50
2018-07-30T15:40:03.949Z,29.50
2018-07-30T15:42:31.394Z,29.50
2018-07-30T15:44:58.820Z,29.40
2018-07-30T15:47:26.253Z,29.30
2018-07-30T15:49:53.722Z,29.30
2018-07-30T15:52:21.181Z,29.30
2018-07-30T15:54:48.599Z,29.40
2018-07-30T15:57:16.081Z,29.30
2018-07-30T15:59:43.509Z,29.30
2018-07-30T16:02:10.997Z,29.30
2018-07-30T16:04:38.428Z,29.20
2018-07-30T16:07:05.852Z,29.00
2018-07-30T16:09:33.250Z,28.90
2018-07-30T16:12:00.788Z,28.90
2018-07-30T16:14:28.228Z,29.00
2018-07-30T16:16:55.632Z,28.90
2018-07-30T16:19:23.053Z,28.90
2018-07-30T16:21:50.451Z,28.90
2018-07-30T16:24:17.887Z,28.80
2018-07-30T16:26:45.306Z,28.70
2018-07-30T16:29:12.781Z,28.70
2018-07-30T16:31:40.177Z,28.70
2018-07-30T16:34:07.601Z,28.60
2018-07-30T16:36:35.047Z,28.40
2018-07-30T16:39:02.589Z,28.30
2018-07-30T16:41:30.156Z,28.30
2018-07-30T16:43:57.558Z,28.30
2018-07-30T16:46:25.042Z,28.30
2018-07-30T16:48:52.502Z,28.10
2018-07-30T16:53:49.842Z,28.00
2018-07-30T16:56:17.290Z,27.90
2018-07-30T16:58:44.780Z,27.90
2018-07-30T17:01:12.222Z,28.00
2018-07-30T17:03:39.624Z,28.10
2018-07-30T17:06:07.053Z,28.20
2018-07-30T17:08:34.477Z,28.20
2018-07-30T17:11:01.909Z,28.20
2018-07-30T17:13:29.677Z,28.10
2018-07-30T17:15:57.101Z,28.00
2018-07-30T17:18:24.505Z,28.10
2018-07-30T17:20:52.137Z,28.10
2018-07-30T17:25:46.930Z,28.20
2018-07-30T17:28:14.308Z,28.10
2018-07-30T17:30:41.727Z,28.20
2018-07-30T17:33:09.118Z,28.20
2018-07-30T17:35:36.547Z,28.10
2018-07-30T17:38:04.000Z,28.00
2018-07-30T17:40:31.393Z,27.80
2018-07-30T17:42:58.798Z,27.80
2018-07-30T17:45:26.220Z,27.80
2018-07-30T17:47:53.677Z,27.60
2018-07-30T17:50:21.106Z,27.30
2018-07-30T17:52:48.554Z,27.10
2018-07-30T17:55:15.989Z,26.90
2018-07-30T17:57:43.421Z,26.90
2018-07-30T18:00:11.036Z,26.90
2018-07-30T18:02:38.656Z,26.90
2018-07-30T18:05:06.600Z,26.80
2018-07-30T18:07:34.041Z,26.70
2018-07-30T18:10:01.481Z,26.50
2018-07-30T18:12:29.080Z,26.30
2018-07-30T18:14:56.552Z,25.90
2018-07-30T18:17:23.992Z,25.70
2018-07-30T18:19:51.445Z,25.70
2018-07-30T18:22:18.926Z,25.50
2018-07-30T18:24:46.348Z,25.40
2018-07-30T18:27:13.768Z,25.10
2018-07-30T18:29:41.233Z,24.90
2018-07-30T18:32:08.662Z,24.80
2018-07-30T18:34:36.122Z,24.70
2018-07-30T18:37:03.550Z,24.40
2018-07-30T18:39:31.013Z,24.30
2018-07-30T18:41:58.449Z,24.00
2018-07-30T18:44:25.868Z,23.70
2018-07-30T18:46:53.285Z,23.80
2018-07-30T18:49:20.685Z,23.80
2018-07-30T18:51:48.096Z,23.70
2018-07-30T18:54:15.498Z,23.70
2018-07-30T18:56:42.939Z,23.40
2018-07-30T18:59:10.399Z,23.20
2018-07-30T19:01:37.838Z,23.00
2018-07-30T19:04:05.294Z,22.90
2018-07-30T19:06:32.704Z,22.90
2018-07-30T19:09:00.146Z,22.80
2018-07-30T19:11:27.556Z,22.70
2018-07-30T19:13:54.962Z,22.80
2018-07-30T19:16:22.409Z,22.70
2018-07-30T19:18:50.225Z,22.60
2018-07-30T19:21:17.724Z,22.50
2018-07-30T19:23:45.247Z,22.30
2018-07-30T19:26:12.781Z,22.20
2018-07-30T19:28:40.322Z,22.10
2018-07-30T19:31:08.066Z,22.00
2018-07-30T19:33:35.574Z,21.80
2018-07-30T19:36:03.021Z,21.80
2018-07-30T19:38:30.526Z,21.70
2018-07-30T19:40:57.970Z,21.70
2018-07-30T19:43:25.421Z,21.60
2018-07-30T19:45:52.834Z,21.60
2018-07-30T19:48:20.264Z,21.60
2018-07-30T19:50:47.672Z,21.60
2018-07-30T19:53:15.094Z,21.60
2018-07-30T19:55:42.549Z,21.50
2018-07-30T19:58:10.166Z,21.40
2018-07-30T20:00:37.414Z,21.30
2018-07-30T20:03:05.018Z,21.30
2018-07-30T20:05:32.596Z,21.30
2018-07-30T20:08:00.057Z,21.30
2018-07-30T20:10:27.471Z,21.30
2018-07-30T20:12:54.934Z,21.10
2018-07-30T20:15:22.525Z,21.00
2018-07-30T20:17:49.905Z,20.90
2018-07-30T20:20:17.287Z,20.80
2018-07-30T20:22:45.014Z,20.80
2018-07-30T20:25:13.289Z,20.90
2018-07-30T20:27:41.351Z,21.00
2018-07-30T20:30:08.973Z,21.00
2018-07-30T20:32:36.433Z,21.00
2018-07-30T20:35:04.385Z,20.90
2018-07-30T20:37:31.817Z,20.80
2018-07-30T20:42:26.779Z,20.60
2018-07-30T20:44:54.358Z,20.60
2018-07-30T20:47:21.750Z,20.60
2018-07-30T20:49:49.193Z,20.50
2018-07-30T20:52:16.596Z,20.50
2018-07-30T20:54:44.185Z,20.40
2018-07-30T20:57:11.859Z,20.50
2018-07-30T20:59:39.302Z,20.60
2018-07-30T21:02:07.045Z,20.60
2018-07-30T21:07:01.949Z,20.50
2018-07-30T21:09:29.409Z,20.30
2018-07-30T21:11:56.850Z,20.20
2018-07-30T21:14:24.252Z,20.20
2018-07-30T21:16:51.699Z,20.20
2018-07-30T21:21:46.569Z,20.20
2018-07-30T21:24:14.001Z,20.20
2018-07-30T21:26:41.465Z,20.20
2018-07-30T21:29:08.894Z,20.20
2018-07-30T21:31:36.331Z,20.30
2018-07-30T21:34:03.794Z,20.30
2018-07-30T21:36:31.207Z,20.20
2018-07-30T21:38:58.623Z,20.30
2018-07-30T21:41:26.054Z,20.30
2018-07-30T21:43:53.465Z,20.20
2018-07-30T21:46:20.923Z,20.20
2018-07-30T21:48:48.326Z,20.20
2018-07-30T21:51:15.772Z,20.20
2018-07-30T21:53:43.182Z,20.20
2018-07-30T21:56:10.561Z,20.20
2018-07-30T21:58:37.969Z,20.20
2018-07-30T22:01:05.459Z,20.20
2018-07-30T22:03:32.882Z,20.20
2018-07-30T22:06:00.844Z,20.20
2018-07-30T22:08:28.765Z,20.00
2018-07-30T22:10:56.269Z,19.90
2018-07-30T22:13:23.874Z,19.90
2018-07-30T22:15:51.320Z,19.80
2018-07-30T22:18:18.888Z,19.80
2018-07-30T22:20:46.331Z,19.70
2018-07-30T22:23:13.781Z,19.70
2018-07-30T22:28:08.624Z,19.80
2018-07-30T22:30:36.269Z,19.80
2018-07-30T22:33:03.669Z,19.80
2018-07-30T22:35:31.142Z,19.80
2018-07-30T22:37:58.602Z,19.80
2018-07-30T22:40:26.045Z,19.80
2018-07-30T22:42:53.457Z,19.80
2018-07-30T22:45:20.911Z,19.60
2018-07-30T22:47:48.300Z,19.60
2018-07-30T22:50:15.765Z,19.50
2018-07-30T22:52:43.201Z,19.60
2018-07-30T22:55:10.633Z,19.60
2018-07-30T22:57:38.248Z,19.60
2018-07-30T23:02:33.361Z,19.30
2018-07-30T23:05:00.811Z,19.30
2018-07-30T23:07:28.357Z,19.30
2018-07-30T23:09:55.771Z,19.30
2018-07-30T23:12:23.174Z,19.40
2018-07-30T23:14:50.643Z,19.50
2018-07-30T23:17:18.097Z,19.50
2018-07-30T23:19:45.497Z,19.40
2018-07-30T23:22:12.973Z,19.30
2018-07-30T23:24:40.377Z,19.20
2018-07-30T23:27:07.836Z,19.10
2018-07-30T23:29:35.259Z,19.10
2018-07-30T23:32:02.699Z,19.10
2018-07-30T23:34:30.119Z,19.20
2018-07-30T23:36:57.606Z,19.10
2018-07-30T23:39:25.062Z,19.10
2018-07-30T23:41:52.472Z,19.00
2018-07-30T23:44:19.878Z,19.00
2018-07-30T23:46:47.313Z,18.90
2018-07-30T23:49:14.716Z,18.90
2018-07-30T23:51:42.201Z,18.90
2018-07-30T23:54:09.606Z,18.90
2018-07-30T23:58:58.946Z,18.90
